createdAt,value
2022-08-07T00:02:41.641Z,17.65
2022-08-07T00:07:44.840Z,15.45
2022-08-07T00:12:59.781Z,18.71
2022-08-07T00:17:57.198Z,19.86
2022-08-07T00:23:03.951Z,20.81
2022-08-07T00:28:10.767Z,19.80
2022-08-07T00:33:15.870Z,18.35
2022-08-07T00:38:31.286Z,18.17
2022-08-07T00:44:00.387Z,17.18
2022-08-07T00:48:33.762Z,16.60
2022-08-07T00:53:50.488Z,16.90
2022-08-07T00:58:47.038Z,16.31
2022-08-07T01:03:55.981Z,15.17
2022-08-07T01:08:59.350Z,14.77
2022-08-07T01:14:02.599Z,13.67
2022-08-07T01:19:14.846Z,16.45
2022-08-07T01:24:14.562Z,16.72
2022-08-07T01:29:20.225Z,16.27
2022-08-07T01:34:30.781Z,16.25
2022-08-07T01:39:41.169Z,16.00
2022-08-07T01:44:37.663Z,16.16
2022-08-07T01:49:44.008Z,15.25
2022-08-07T01:54:49.842Z,17.06
2022-08-07T01:59:56.000Z,15.82
2022-08-07T02:05:01.837Z,16.68
2022-08-07T02:10:07.584Z,15.33
2022-08-07T02:15:13.344Z,15.99
2022-08-07T02:20:19.862Z,16.29
2022-08-07T02:26:11.438Z,15.03
2022-08-07T02:30:30.537Z,14.09
2022-08-07T02:36:41.399Z,16.42
2022-08-07T02:41:50.493Z,16.03
2022-08-07T02:46:52.788Z,15.54
2022-08-07T02:51:57.190Z,16.62
2022-08-07T02:57:03.533Z,16.85
2022-08-07T03:02:09.280Z,17.74
2022-08-07T03:07:14.926Z,16.68
2022-08-07T03:12:22.663Z,14.93
2022-08-07T03:17:27.127Z,16.02
2022-08-07T03:22:32.596Z,17.28
2022-08-07T03:27:58.880Z,18.30
2022-08-07T03:32:58.228Z,16.42
2022-08-07T03:37:54.173Z,16.90
2022-08-07T03:42:56.407Z,16.68
2022-08-07T03:48:02.684Z,15.94
2022-08-07T03:53:08.329Z,18.72
2022-08-07T03:59:04.981Z,17.80
2022-08-07T04:03:20.673Z,17.15
2022-08-07T04:08:26.930Z,18.42
2022-08-07T04:14:09.123Z,17.18
2022-08-07T04:18:59.573Z,19.04
2022-08-07T04:24:03.468Z,16.69
2022-08-07T04:28:50.424Z,17.80
2022-08-07T04:33:56.716Z,17.28
2022-08-07T04:39:02.465Z,17.04
2022-08-07T04:44:14.496Z,17.99
2022-08-07T04:49:17.539Z,16.32
2022-08-07T04:54:22.658Z,15.60
2022-08-07T05:00:09.604Z,17.87
2022-08-07T05:04:32.204Z,18.18
2022-08-07T05:09:43.421Z,18.47
2022-08-07T05:14:55.216Z,16.38
2022-08-07T05:19:50.956Z,16.71
2022-08-07T05:24:56.681Z,15.73
2022-08-07T05:30:03.365Z,18.30
2022-08-07T05:35:09.473Z,19.24
2022-08-07T05:40:18.913Z,20.50
2022-08-07T05:45:28.207Z,20.48
2022-08-07T05:50:27.179Z,18.26
2022-08-07T05:56:03.834Z,17.79
2022-08-07T06:00:38.948Z,23.53
2022-08-07T06:05:49.037Z,23.07
2022-08-07T06:10:51.288Z,20.58
2022-08-07T06:15:56.589Z,19.65
2022-08-07T06:22:16.733Z,18.86
2022-08-07T06:26:07.985Z,18.00
2022-08-07T06:31:13.835Z,17.21
2022-08-07T06:36:27.529Z,15.74
2022-08-07T06:42:00.391Z,14.44
2022-08-07T06:46:35.297Z,14.62
2022-08-07T06:51:49.361Z,13.36
2022-08-07T06:56:49.338Z,11.92
2022-08-07T07:01:50.894Z,12.60
2022-08-07T07:07:00.549Z,13.19
2022-08-07T07:12:08.139Z,11.30
2022-08-07T07:17:06.161Z,11.65
2022-08-07T07:22:33.863Z,10.33
2022-08-07T07:27:17.728Z,9.92
2022-08-07T07:32:23.440Z,10.45
2022-08-07T07:37:49.458Z,9.88
2022-08-07T07:42:35.476Z,9.78
2022-08-07T07:47:51.878Z,9.31
2022-08-07T07:52:47.675Z,8.42
2022-08-07T07:57:58.181Z,8.59
2022-08-07T08:03:04.841Z,8.46
2022-08-07T08:08:05.118Z,7.81
2022-08-07T08:13:15.475Z,8.53
2022-08-07T08:18:18.524Z,6.72
2022-08-07T08:23:23.162Z,8.40
2022-08-07T08:28:38.417Z,7.26
2022-08-07T08:33:34.951Z,7.09
2022-08-07T08:38:41.390Z,7.41
2022-08-07T08:43:50.478Z,7.20
2022-08-07T08:48:53.061Z,6.42
2022-08-07T08:54:00.044Z,6.64
2022-08-07T08:59:12.760Z,6.36
2022-08-07T09:04:11.065Z,6.80
2022-08-07T09:09:21.170Z,6.25
2022-08-07T09:14:22.252Z,7.51
2022-08-07T09:19:51.625Z,7.48
2022-08-07T09:24:58.521Z,7.07
2022-08-07T09:30:03.138Z,7.04
2022-08-07T09:34:45.217Z,6.11
2022-08-07T09:39:53.987Z,5.33
2022-08-07T09:47:24.272Z,6.20
2022-08-07T09:50:19.024Z,6.82
2022-08-07T09:55:16.934Z,6.69
2022-08-07T10:00:14.755Z,5.90
2022-08-07T10:05:58.142Z,5.85
2022-08-07T10:10:25.360Z,5.74
2022-08-07T10:15:31.233Z,5.94
2022-08-07T10:20:37.113Z,6.67
2022-08-07T10:25:43.631Z,5.36
2022-08-07T10:30:49.011Z,6.04
2022-08-07T10:36:05.485Z,5.37
2022-08-07T10:41:01.045Z,5.69
2022-08-07T10:46:07.254Z,5.84
2022-08-07T10:51:16.793Z,5.50
2022-08-07T10:56:20.970Z,5.73
2022-08-07T11:01:25.582Z,5.18
2022-08-07T11:06:31.400Z,5.31
2022-08-07T11:11:37.701Z,5.25
2022-08-07T11:16:48.003Z,4.95
2022-08-07T11:21:49.316Z,5.03
2022-08-07T11:26:55.000Z,4.53
2022-08-07T11:32:01.677Z,5.19
2022-08-07T11:37:11.798Z,5.43
2022-08-07T11:42:18.803Z,5.21
2022-08-07T11:47:20.962Z,4.34
2022-08-07T11:52:29.371Z,4.54
2022-08-07T11:57:59.757Z,4.46
2022-08-07T12:02:39.168Z,4.30
2022-08-07T12:07:45.493Z,4.33
2022-08-07T12:12:51.447Z,6.84
2022-08-07T12:17:59.184Z,5.61
2022-08-07T12:23:09.178Z,5.47
2022-08-07T12:28:11.476Z,4.31
2022-08-07T12:33:23.493Z,5.27
2022-08-07T12:38:30.579Z,4.19
2022-08-07T12:44:02.830Z,4.46
2022-08-07T12:48:41.611Z,4.89
2022-08-07T12:54:36.325Z,4.30
2022-08-07T12:58:46.851Z,5.31
2022-08-07T13:03:56.028Z,5.25
2022-08-07T13:08:57.749Z,4.12
2022-08-07T13:14:03.408Z,4.33
2022-08-07T13:19:11.370Z,3.62
2022-08-07T13:24:15.488Z,3.89
2022-08-07T13:29:21.893Z,4.91
2022-08-07T13:34:33.503Z,4.12
2022-08-07T13:40:33.097Z,4.17
2022-08-07T13:44:39.488Z,3.80
2022-08-07T13:50:34.784Z,4.69
2022-08-07T13:54:51.015Z,4.13
2022-08-07T13:59:56.889Z,3.85
2022-08-07T14:05:02.645Z,4.07
2022-08-07T14:10:17.690Z,3.87
2022-08-07T14:15:14.001Z,5.72
2022-08-07T14:20:41.126Z,4.65
2022-08-07T14:25:25.770Z,4.12
2022-08-07T14:30:33.004Z,3.98
2022-08-07T14:35:45.807Z,4.48
2022-08-07T14:40:43.246Z,3.45
2022-08-07T14:50:54.626Z,3.52
2022-08-07T14:56:00.967Z,3.27
2022-08-07T15:01:21.606Z,4.76
2022-08-07T15:06:12.484Z,3.13
2022-08-07T15:11:53.879Z,2.93
2022-08-07T15:16:31.239Z,3.11
2022-08-07T15:21:44.075Z,2.88
2022-08-07T15:26:37.158Z,3.08
2022-08-07T15:42:45.652Z,2.90
2022-08-07T15:47:03.188Z,2.35
2022-08-07T15:52:05.252Z,3.35
2022-08-07T15:57:39.257Z,2.88
2022-08-07T16:02:16.853Z,2.85
2022-08-07T16:08:32.499Z,2.75
2022-08-07T16:12:29.235Z,2.49
2022-08-07T16:18:02.160Z,2.72
2022-08-07T16:22:54.915Z,2.57
2022-08-07T16:27:45.432Z,2.70
2022-08-07T16:32:54.466Z,2.65
2022-08-07T16:38:05.497Z,3.40
2022-08-07T16:43:03.417Z,3.47
2022-08-07T16:48:09.130Z,2.68
2022-08-07T16:54:01.271Z,3.17
2022-08-07T16:58:20.556Z,2.94
2022-08-07T17:03:58.447Z,3.48
2022-08-07T17:08:45.999Z,2.85
2022-08-07T17:13:41.189Z,3.26
2022-08-07T17:18:46.008Z,4.29
2022-08-07T17:23:50.072Z,3.18
2022-08-07T17:28:55.715Z,5.23
2022-08-07T17:34:15.093Z,4.01
2022-08-07T17:39:10.385Z,3.04
2022-08-07T17:44:33.666Z,4.83
2022-08-07T17:49:23.194Z,3.68
2022-08-07T17:54:39.505Z,3.93
2022-08-07T17:59:35.371Z,4.39
2022-08-07T18:04:36.135Z,4.68
2022-08-07T18:10:04.503Z,3.40
2022-08-07T18:14:49.545Z,5.44
2022-08-07T18:21:08.115Z,5.59
2022-08-07T18:25:19.017Z,6.04
2022-08-07T18:30:31.875Z,3.90
2022-08-07T18:35:15.824Z,5.36
2022-08-07T18:40:42.407Z,4.72
2022-08-07T18:45:44.320Z,5.57
2022-08-07T18:50:43.990Z,4.64
2022-08-07T18:55:42.540Z,4.93
2022-08-07T19:00:43.195Z,3.60
2022-08-07T19:06:02.076Z,6.34
2022-08-07T19:10:55.136Z,4.95
2022-08-07T19:16:04.559Z,4.62
2022-08-07T19:21:09.059Z,5.22
2022-08-07T19:26:25.142Z,4.91
2022-08-07T19:31:42.759Z,5.13
2022-08-07T19:36:27.668Z,5.04
2022-08-07T19:41:44.053Z,4.10
2022-08-07T19:46:35.338Z,4.52
2022-08-07T19:51:52.251Z,3.93
2022-08-07T19:58:02.039Z,4.09
2022-08-07T20:01:57.291Z,5.24
2022-08-07T20:06:58.907Z,4.50
2022-08-07T20:12:31.360Z,4.33
2022-08-07T20:17:11.886Z,3.78
2022-08-07T20:22:18.019Z,4.78
2022-08-07T20:27:48.092Z,3.54
2022-08-07T20:32:39.818Z,5.09
2022-08-07T20:37:46.750Z,4.33
2022-08-07T20:42:41.226Z,3.37
2022-08-07T20:47:56.912Z,3.73
2022-08-07T20:52:52.859Z,4.98
2022-08-07T20:58:04.201Z,3.29
2022-08-07T21:03:05.010Z,5.14
2022-08-07T21:08:12.548Z,4.10
2022-08-07T21:13:16.832Z,3.90
2022-08-07T21:18:28.054Z,4.19
2022-08-07T21:23:28.774Z,3.25
2022-08-07T21:28:48.705Z,4.32
2022-08-07T21:33:41.845Z,3.79
2022-08-07T21:38:46.816Z,3.72
2022-08-07T21:43:55.814Z,4.08
2022-08-07T21:48:58.273Z,3.97
2022-08-07T21:54:04.567Z,5.46
2022-08-07T21:59:10.851Z,4.94
2022-08-07T22:04:17.579Z,4.97
2022-08-07T22:09:22.534Z,3.80
2022-08-07T22:14:36.247Z,4.34
2022-08-07T22:19:34.114Z,3.65
2022-08-07T22:24:39.758Z,4.55
2022-08-07T22:29:48.340Z,4.04
2022-08-07T22:34:53.321Z,4.39
2022-08-07T22:39:57.542Z,4.78
2022-08-07T22:45:03.722Z,4.19
2022-08-07T22:50:08.981Z,5.03
2022-08-07T22:55:22.371Z,3.79
2022-08-07T23:00:21.474Z,3.83
2022-08-07T23:06:09.664Z,4.27
2022-08-07T23:10:37.540Z,4.19
2022-08-07T23:16:05.696Z,4.66
2022-08-07T23:20:52.967Z,5.20
2022-08-07T23:25:49.874Z,4.14
2022-08-07T23:31:05.587Z,3.96
2022-08-07T23:36:01.789Z,4.15
2022-08-07T23:41:07.715Z,5.68
2022-08-07T23:46:13.954Z,5.18
2022-08-07T23:53:06.749Z,5.87
2022-08-07T23:56:26.574Z,4.47
